sensor_id;sensor_type;location;lat;lon;timestamp;pressure;altitude;pressure_sealevel;temperature;humidity
49529;BME280;35423;37.320;-121.762;2023-05-17T00:02:15;99769.92;;;43.42;10.33
49529;BME280;35423;37.320;-121.762;2023-05-17T00:04:42;99768.89;;;43.13;10.40
49529;BME280;35423;37.320;-121.762;2023-05-17T00:07:14;99765.94;;;43.30;10.40
49529;BME280;35423;37.320;-121.762;2023-05-17T00:09:51;99768.12;;;43.27;10.44
49529;BME280;35423;37.320;-121.762;2023-05-17T00:12:18;99765.67;;;43.19;10.30
49529;BME280;35423;37.320;-121.762;2023-05-17T00:14:50;99765.21;;;43.11;10.22
49529;BME280;35423;37.320;-121.762;2023-05-17T00:17:18;99763.20;;;42.85;10.28
49529;BME280;35423;37.320;-121.762;2023-05-17T00:19:47;99764.44;;;42.85;9.96
49529;BME280;35423;37.320;-121.762;2023-05-17T00:22:17;99759.12;;;43.04;10.02
49529;BME280;35423;37.320;-121.762;2023-05-17T00:24:43;99758.60;;;43.24;10.22
49529;BME280;35423;37.320;-121.762;2023-05-17T00:27:11;99757.42;;;42.97;10.38
49529;BME280;35423;37.320;-121.762;2023-05-17T00:29:41;99752.73;;;42.88;10.37
49529;BME280;35423;37.320;-121.762;2023-05-17T00:32:12;99753.68;;;42.80;10.55
49529;BME280;35423;37.320;-121.762;2023-05-17T00:34:40;99750.81;;;42.71;10.32
49529;BME280;35423;37.320;-121.762;2023-05-17T00:37:07;99750.89;;;42.93;10.31
49529;BME280;35423;37.320;-121.762;2023-05-17T00:39:34;99748.40;;;42.63;10.25
49529;BME280;35423;37.320;-121.762;2023-05-17T00:42:03;99752.33;;;42.52;10.32
49529;BME280;35423;37.320;-121.762;2023-05-17T00:44:27;99746.80;;;42.46;10.65
49529;BME280;35423;37.320;-121.762;2023-05-17T00:46:54;99743.66;;;42.27;11.01
49529;BME280;35423;37.320;-121.762;2023-05-17T00:49:23;99745.46;;;42.16;11.11
49529;BME280;35423;37.320;-121.762;2023-05-17T00:51:51;99745.84;;;42.12;11.28
49529;BME280;35423;37.320;-121.762;2023-05-17T00:54:18;99743.62;;;42.11;11.37
49529;BME280;35423;37.320;-121.762;2023-05-17T00:56:43;99746.31;;;42.28;11.50
49529;BME280;35423;37.320;-121.762;2023-05-17T00:59:12;99747.64;;;41.88;11.58
49529;BME280;35423;37.320;-121.762;2023-05-17T01:01:41;99749.90;;;42.03;11.57
49529;BME280;35423;37.320;-121.762;2023-05-17T01:04:05;99747.48;;;41.96;11.56
49529;BME280;35423;37.320;-121.762;2023-05-17T01:06:31;99744.01;;;41.63;11.58
49529;BME280;35423;37.320;-121.762;2023-05-17T01:08:57;99744.01;;;41.90;11.58
49529;BME280;35423;37.320;-121.762;2023-05-17T01:11:34;99746.96;;;41.80;11.57
49529;BME280;35423;37.320;-121.762;2023-05-17T01:13:57;99748.31;;;41.73;11.68
49529;BME280;35423;37.320;-121.762;2023-05-17T01:16:30;99747.03;;;41.63;11.69
49529;BME280;35423;37.320;-121.762;2023-05-17T01:18:53;99744.87;;;41.55;11.76
49529;BME280;35423;37.320;-121.762;2023-05-17T01:21:28;99744.78;;;41.45;11.91
49529;BME280;35423;37.320;-121.762;2023-05-17T01:23:53;99740.03;;;41.59;11.99
49529;BME280;35423;37.320;-121.762;2023-05-17T01:26:13;99734.82;;;41.69;12.02
49529;BME280;35423;37.320;-121.762;2023-05-17T01:28:51;99731.49;;;41.36;12.10
49529;BME280;35423;37.320;-121.762;2023-05-17T01:31:04;99725.95;;;41.26;11.93
49529;BME280;35423;37.320;-121.762;2023-05-17T01:33:31;99727.18;;;41.42;11.88
49529;BME280;35423;37.320;-121.762;2023-05-17T01:35:57;99729.54;;;41.15;11.70
49529;BME280;35423;37.320;-121.762;2023-05-17T01:38:28;99728.00;;;41.07;11.46
49529;BME280;35423;37.320;-121.762;2023-05-17T01:40:57;99726.65;;;41.14;11.48
49529;BME280;35423;37.320;-121.762;2023-05-17T01:43:25;99725.89;;;41.03;11.56
49529;BME280;35423;37.320;-121.762;2023-05-17T01:45:56;99725.15;;;40.87;11.68
49529;BME280;35423;37.320;-121.762;2023-05-17T01:48:20;99727.97;;;40.72;11.91
49529;BME280;35423;37.320;-121.762;2023-05-17T01:53:28;99726.19;;;40.85;11.58
49529;BME280;35423;37.320;-121.762;2023-05-17T01:55:51;99729.01;;;40.44;11.61
49529;BME280;35423;37.320;-121.762;2023-05-17T01:58:12;99729.82;;;40.32;11.73
49529;BME280;35423;37.320;-121.762;2023-05-17T02:00:40;99727.75;;;40.23;11.79
49529;BME280;35423;37.320;-121.762;2023-05-17T02:03:06;99726.58;;;40.10;11.82
49529;BME280;35423;37.320;-121.762;2023-05-17T02:05:31;99724.00;;;40.00;11.81
49529;BME280;35423;37.320;-121.762;2023-05-17T02:07:58;99725.30;;;40.15;11.73
49529;BME280;35423;37.320;-121.762;2023-05-17T02:10:24;99725.57;;;39.96;11.90
49529;BME280;35423;37.320;-121.762;2023-05-17T02:12:52;99725.36;;;39.53;12.11
49529;BME280;35423;37.320;-121.762;2023-05-17T02:15:17;99727.42;;;39.62;12.22
49529;BME280;35423;37.320;-121.762;2023-05-17T02:17:45;99726.38;;;39.47;12.05
49529;BME280;35423;37.320;-121.762;2023-05-17T02:20:20;99726.01;;;39.53;12.12
49529;BME280;35423;37.320;-121.762;2023-05-17T02:22:49;99729.24;;;39.36;12.15
49529;BME280;35423;37.320;-121.762;2023-05-17T02:25:16;99729.41;;;39.18;12.06
49529;BME280;35423;37.320;-121.762;2023-05-17T02:27:41;99731.58;;;39.04;11.88
49529;BME280;35423;37.320;-121.762;2023-05-17T02:30:08;99732.44;;;39.08;11.87
49529;BME280;35423;37.320;-121.762;2023-05-17T02:32:36;99734.54;;;38.46;11.96
49529;BME280;35423;37.320;-121.762;2023-05-17T02:35:12;99736.29;;;38.77;12.02
49529;BME280;35423;37.320;-121.762;2023-05-17T02:37:31;99741.29;;;38.86;12.04
49529;BME280;35423;37.320;-121.762;2023-05-17T02:40:04;99747.86;;;38.68;12.19
49529;BME280;35423;37.320;-121.762;2023-05-17T02:42:32;99748.94;;;38.26;12.24
49529;BME280;35423;37.320;-121.762;2023-05-17T02:44:57;99752.73;;;38.34;12.36
49529;BME280;35423;37.320;-121.762;2023-05-17T02:47:23;99753.78;;;38.18;12.34
49529;BME280;35423;37.320;-121.762;2023-05-17T02:49:48;99755.09;;;38.04;12.36
49529;BME280;35423;37.320;-121.762;2023-05-17T02:52:14;99756.04;;;37.88;12.47
49529;BME280;35423;37.320;-121.762;2023-05-17T02:54:41;99759.05;;;37.74;12.66
49529;BME280;35423;37.320;-121.762;2023-05-17T02:57:07;99762.76;;;37.58;12.82
49529;BME280;35423;37.320;-121.762;2023-05-17T02:59:33;99767.18;;;37.48;12.92
49529;BME280;35423;37.320;-121.762;2023-05-17T03:02:00;99765.48;;;37.33;13.01
49529;BME280;35423;37.320;-121.762;2023-05-17T03:04:26;99766.55;;;37.17;13.30
49529;BME280;35423;37.320;-121.762;2023-05-17T03:06:57;99767.39;;;37.53;13.55
49529;BME280;35423;37.320;-121.762;2023-05-17T03:09:25;99770.50;;;37.09;13.79
49529;BME280;35423;37.320;-121.762;2023-05-17T03:11:56;99771.18;;;37.25;14.03
49529;BME280;35423;37.320;-121.762;2023-05-17T03:14:21;99773.86;;;37.07;14.30
49529;BME280;35423;37.320;-121.762;2023-05-17T03:16:56;99775.14;;;36.94;14.54
49529;BME280;35423;37.320;-121.762;2023-05-17T03:19:23;99776.89;;;36.55;14.69
49529;BME280;35423;37.320;-121.762;2023-05-17T03:21:51;99775.26;;;36.61;14.98
49529;BME280;35423;37.320;-121.762;2023-05-17T03:24:24;99780.79;;;36.39;15.33
49529;BME280;35423;37.320;-121.762;2023-05-17T03:26:52;99788.98;;;36.27;15.57
49529;BME280;35423;37.320;-121.762;2023-05-17T03:29:17;99795.12;;;36.13;15.99
49529;BME280;35423;37.320;-121.762;2023-05-17T03:31:46;99801.10;;;36.20;16.32
49529;BME280;35423;37.320;-121.762;2023-05-17T03:34:32;99802.77;;;36.05;16.75
49529;BME280;35423;37.320;-121.762;2023-05-17T03:36:59;99804.23;;;35.68;16.97
49529;BME280;35423;37.320;-121.762;2023-05-17T03:39:32;99808.08;;;35.72;17.23
49529;BME280;35423;37.320;-121.762;2023-05-17T03:41:57;99812.07;;;35.55;17.47
49529;BME280;35423;37.320;-121.762;2023-05-17T03:44:25;99816.20;;;35.17;17.65
49529;BME280;35423;37.320;-121.762;2023-05-17T03:47:03;99820.98;;;35.73;17.76
49529;BME280;35423;37.320;-121.762;2023-05-17T03:49:31;99822.40;;;35.28;17.83
49529;BME280;35423;37.320;-121.762;2023-05-17T03:51:59;99822.22;;;35.37;17.93
49529;BME280;35423;37.320;-121.762;2023-05-17T03:54:27;99823.04;;;34.76;18.06
49529;BME280;35423;37.320;-121.762;2023-05-17T03:57:01;99827.95;;;34.85;18.20
49529;BME280;35423;37.320;-121.762;2023-05-17T03:59:32;99834.02;;;34.98;18.31
49529;BME280;35423;37.320;-121.762;2023-05-17T04:01:58;99838.27;;;34.55;18.46
49529;BME280;35423;37.320;-121.762;2023-05-17T04:04:25;99839.76;;;34.40;18.65
49529;BME280;35423;37.320;-121.762;2023-05-17T04:06:51;99840.36;;;34.70;18.73
49529;BME280;35423;37.320;-121.762;2023-05-17T04:09:18;99847.80;;;34.55;18.92
49529;BME280;35423;37.320;-121.762;2023-05-17T04:11:46;99851.49;;;34.38;19.07
49529;BME280;35423;37.320;-121.762;2023-05-17T04:14:12;99859.52;;;34.27;19.11
49529;BME280;35423;37.320;-121.762;2023-05-17T04:16:38;99863.08;;;34.10;19.23
49529;BME280;35423;37.320;-121.762;2023-05-17T04:19:03;99864.53;;;33.98;19.34
49529;BME280;35423;37.320;-121.762;2023-05-17T04:21:30;99871.15;;;33.88;19.41
49529;BME280;35423;37.320;-121.762;2023-05-17T04:23:57;99871.14;;;33.69;19.59
49529;BME280;35423;37.320;-121.762;2023-05-17T04:26:22;99875.91;;;33.54;19.76
49529;BME280;35423;37.320;-121.762;2023-05-17T04:28:48;99877.65;;;33.40;19.85
49529;BME280;35423;37.320;-121.762;2023-05-17T04:31:33;99878.32;;;33.30;19.92
49529;BME280;35423;37.320;-121.762;2023-05-17T04:33:58;99881.75;;;33.14;20.10
49529;BME280;35423;37.320;-121.762;2023-05-17T04:36:23;99885.33;;;33.02;20.22
49529;BME280;35423;37.320;-121.762;2023-05-17T04:38:51;99891.66;;;33.13;20.30
49529;BME280;35423;37.320;-121.762;2023-05-17T04:41:19;99897.40;;;32.83;20.25
49529;BME280;35423;37.320;-121.762;2023-05-17T04:43:44;99898.97;;;32.73;20.27
49529;BME280;35423;37.320;-121.762;2023-05-17T04:46:12;99899.99;;;33.11;20.28
49529;BME280;35423;37.320;-121.762;2023-05-17T04:48:44;99906.38;;;32.68;20.44
49529;BME280;35423;37.320;-121.762;2023-05-17T04:51:20;99907.48;;;32.83;20.63
49529;BME280;35423;37.320;-121.762;2023-05-17T04:53:47;99909.94;;;32.69;20.70
49529;BME280;35423;37.320;-121.762;2023-05-17T04:56:17;99909.49;;;32.58;20.86
49529;BME280;35423;37.320;-121.762;2023-05-17T04:58:47;99909.03;;;32.98;20.94
49529;BME280;35423;37.320;-121.762;2023-05-17T05:01:09;99909.65;;;32.37;21.04
49529;BME280;35423;37.320;-121.762;2023-05-17T05:03:36;99910.66;;;32.27;21.09
49529;BME280;35423;37.320;-121.762;2023-05-17T05:06:02;99912.79;;;32.19;21.18
49529;BME280;35423;37.320;-121.762;2023-05-17T05:08:28;99914.58;;;32.08;21.26
49529;BME280;35423;37.320;-121.762;2023-05-17T05:10:55;99911.71;;;31.95;21.30
49529;BME280;35423;37.320;-121.762;2023-05-17T05:13:25;99916.76;;;32.08;21.34
49529;BME280;35423;37.320;-121.762;2023-05-17T05:15:51;99918.79;;;31.94;21.39
49529;BME280;35423;37.320;-121.762;2023-05-17T05:18:16;99920.68;;;31.85;21.43
49529;BME280;35423;37.320;-121.762;2023-05-17T05:20:47;99921.57;;;32.02;21.50
49529;BME280;35423;37.320;-121.762;2023-05-17T05:23:13;99921.10;;;31.89;21.54
49529;BME280;35423;37.320;-121.762;2023-05-17T05:25:46;99924.46;;;31.80;21.60
49529;BME280;35423;37.320;-121.762;2023-05-17T05:28:13;99929.24;;;31.42;21.68
49529;BME280;35423;37.320;-121.762;2023-05-17T05:30:39;99934.26;;;31.79;21.80
49529;BME280;35423;37.320;-121.762;2023-05-17T05:33:08;99933.59;;;31.42;21.87
49529;BME280;35423;37.320;-121.762;2023-05-17T05:35:33;99933.04;;;31.49;22.01
49529;BME280;35423;37.320;-121.762;2023-05-17T05:37:59;99936.08;;;31.13;22.14
49529;BME280;35423;37.320;-121.762;2023-05-17T05:40:25;99939.56;;;31.01;22.27
49529;BME280;35423;37.320;-121.762;2023-05-17T05:42:51;99939.14;;;30.82;22.40
49529;BME280;35423;37.320;-121.762;2023-05-17T05:45:17;99940.59;;;30.93;22.49
49529;BME280;35423;37.320;-121.762;2023-05-17T05:47:48;99942.56;;;31.04;22.60
49529;BME280;35423;37.320;-121.762;2023-05-17T05:50:13;99946.22;;;30.67;22.74
49529;BME280;35423;37.320;-121.762;2023-05-17T05:52:54;99947.31;;;30.82;22.82
49529;BME280;35423;37.320;-121.762;2023-05-17T05:55:27;99951.78;;;30.72;22.89
49529;BME280;35423;37.320;-121.762;2023-05-17T05:57:56;99951.28;;;30.57;23.03
49529;BME280;35423;37.320;-121.762;2023-05-17T06:00:24;99944.67;;;30.44;23.14
49529;BME280;35423;37.320;-121.762;2023-05-17T06:02:51;99946.09;;;30.28;23.29
49529;BME280;35423;37.320;-121.762;2023-05-17T06:05:16;99944.65;;;29.98;23.36
49529;BME280;35423;37.320;-121.762;2023-05-17T06:07:44;99941.71;;;30.36;23.37
49529;BME280;35423;37.320;-121.762;2023-05-17T06:10:18;99940.19;;;30.02;23.54
49529;BME280;35423;37.320;-121.762;2023-05-17T06:12:43;99941.56;;;29.94;23.63
49529;BME280;35423;37.320;-121.762;2023-05-17T06:15:20;99940.91;;;30.33;23.72
49529;BME280;35423;37.320;-121.762;2023-05-17T06:17:49;99939.76;;;30.01;23.78
49529;BME280;35423;37.320;-121.762;2023-05-17T06:20:18;99937.90;;;29.90;23.87
49529;BME280;35423;37.320;-121.762;2023-05-17T06:22:45;99936.92;;;29.52;23.96
49529;BME280;35423;37.320;-121.762;2023-05-17T06:25:11;99935.66;;;29.73;24.05
49529;BME280;35423;37.320;-121.762;2023-05-17T06:27:40;99933.79;;;29.90;24.12
49529;BME280;35423;37.320;-121.762;2023-05-17T06:30:08;99931.97;;;29.30;24.21
49529;BME280;35423;37.320;-121.762;2023-05-17T06:32:35;99929.56;;;29.47;24.30
49529;BME280;35423;37.320;-121.762;2023-05-17T06:35:01;99932.14;;;29.59;24.35
49529;BME280;35423;37.320;-121.762;2023-05-17T06:37:27;99935.62;;;29.01;24.42
49529;BME280;35423;37.320;-121.762;2023-05-17T06:40:03;99938.27;;;29.43;24.49
49529;BME280;35423;37.320;-121.762;2023-05-17T06:42:29;99932.11;;;29.32;24.55
49529;BME280;35423;37.320;-121.762;2023-05-17T06:44:54;99927.85;;;29.21;24.64
49529;BME280;35423;37.320;-121.762;2023-05-17T06:47:26;99926.95;;;29.16;24.64
49529;BME280;35423;37.320;-121.762;2023-05-17T06:49:51;99923.89;;;29.09;24.64
49529;BME280;35423;37.320;-121.762;2023-05-17T06:52:21;99920.50;;;28.95;24.78
49529;BME280;35423;37.320;-121.762;2023-05-17T06:54:48;99918.06;;;28.89;24.81
49529;BME280;35423;37.320;-121.762;2023-05-17T06:57:15;99915.93;;;28.81;24.88
49529;BME280;35423;37.320;-121.762;2023-05-17T06:59:45;99916.76;;;28.94;24.98
49529;BME280;35423;37.320;-121.762;2023-05-17T07:02:10;99916.49;;;28.71;24.98
49529;BME280;35423;37.320;-121.762;2023-05-17T07:04:37;99914.46;;;28.57;25.02
49529;BME280;35423;37.320;-121.762;2023-05-17T07:07:11;99914.03;;;28.44;25.08
49529;BME280;35423;37.320;-121.762;2023-05-17T07:09:32;99912.12;;;28.33;25.21
49529;BME280;35423;37.320;-121.762;2023-05-17T07:12:01;99905.16;;;28.46;25.28
49529;BME280;35423;37.320;-121.762;2023-05-17T07:14:29;99900.82;;;28.36;25.33
49529;BME280;35423;37.320;-121.762;2023-05-17T07:16:59;99899.96;;;28.53;25.31
49529;BME280;35423;37.320;-121.762;2023-05-17T07:19:26;99900.13;;;28.45;25.35
49529;BME280;35423;37.320;-121.762;2023-05-17T07:22:03;99897.45;;;28.36;25.46
49529;BME280;35423;37.320;-121.762;2023-05-17T07:24:36;99897.93;;;28.33;25.54
49529;BME280;35423;37.320;-121.762;2023-05-17T07:27:02;99897.94;;;28.23;25.59
49529;BME280;35423;37.320;-121.762;2023-05-17T07:29:28;99898.70;;;28.13;25.54
49529;BME280;35423;37.320;-121.762;2023-05-17T07:31:58;99898.87;;;28.01;25.52
49529;BME280;35423;37.320;-121.762;2023-05-17T07:34:26;99899.21;;;27.82;25.54
49529;BME280;35423;37.320;-121.762;2023-05-17T07:36:52;99898.72;;;27.69;25.62
49529;BME280;35423;37.320;-121.762;2023-05-17T07:39:18;99902.20;;;27.59;25.76
49529;BME280;35423;37.320;-121.762;2023-05-17T07:41:48;99903.46;;;27.75;25.83
49529;BME280;35423;37.320;-121.762;2023-05-17T07:44:19;99900.38;;;27.45;25.89
49529;BME280;35423;37.320;-121.762;2023-05-17T07:46:52;99898.18;;;27.36;25.92
49529;BME280;35423;37.320;-121.762;2023-05-17T07:49:18;99895.29;;;27.30;25.88
49529;BME280;35423;37.320;-121.762;2023-05-17T07:51:49;99895.17;;;27.21;25.96
49529;BME280;35423;37.320;-121.762;2023-05-17T07:54:22;99892.83;;;27.17;26.02
49529;BME280;35423;37.320;-121.762;2023-05-17T07:56:40;99890.73;;;27.29;26.20
49529;BME280;35423;37.320;-121.762;2023-05-17T07:59:06;99890.31;;;27.22;26.33
49529;BME280;35423;37.320;-121.762;2023-05-17T08:01:31;99889.85;;;26.94;26.33
49529;BME280;35423;37.320;-121.762;2023-05-17T08:03:57;99886.95;;;27.31;26.28
49529;BME280;35423;37.320;-121.762;2023-05-17T08:06:22;99882.51;;;26.94;26.22
49529;BME280;35423;37.320;-121.762;2023-05-17T08:08:47;99881.79;;;26.86;26.22
49529;BME280;35423;37.320;-121.762;2023-05-17T08:11:14;99886.39;;;27.02;26.22
49529;BME280;35423;37.320;-121.762;2023-05-17T08:13:41;99882.52;;;26.67;26.25
49529;BME280;35423;37.320;-121.762;2023-05-17T08:16:05;99881.72;;;26.58;26.37
49529;BME280;35423;37.320;-121.762;2023-05-17T08:18:31;99881.34;;;26.76;26.46
49529;BME280;35423;37.320;-121.762;2023-05-17T08:20:57;99880.75;;;26.71;26.47
49529;BME280;35423;37.320;-121.762;2023-05-17T08:23:23;99883.92;;;26.39;26.53
49529;BME280;35423;37.320;-121.762;2023-05-17T08:25:48;99880.71;;;26.63;26.61
49529;BME280;35423;37.320;-121.762;2023-05-17T08:28:14;99879.04;;;26.59;26.65
49529;BME280;35423;37.320;-121.762;2023-05-17T08:30:42;99878.83;;;26.53;26.70
49529;BME280;35423;37.320;-121.762;2023-05-17T08:33:09;99878.37;;;26.45;26.83
49529;BME280;35423;37.320;-121.762;2023-05-17T08:35:40;99878.83;;;26.40;26.88
49529;BME280;35423;37.320;-121.762;2023-05-17T08:38:06;99880.25;;;26.55;26.91
49529;BME280;35423;37.320;-121.762;2023-05-17T08:40:32;99879.83;;;26.27;26.96
49529;BME280;35423;37.320;-121.762;2023-05-17T08:42:58;99879.54;;;26.41;27.01
49529;BME280;35423;37.320;-121.762;2023-05-17T08:45:26;99882.38;;;26.59;27.03
49529;BME280;35423;37.320;-121.762;2023-05-17T08:47:53;99878.12;;;26.06;27.08
49529;BME280;35423;37.320;-121.762;2023-05-17T08:50:17;99878.91;;;26.40;27.18
49529;BME280;35423;37.320;-121.762;2023-05-17T08:52:49;99885.00;;;25.87;27.27
49529;BME280;35423;37.320;-121.762;2023-05-17T08:55:18;99883.72;;;26.27;27.36
49529;BME280;35423;37.320;-121.762;2023-05-17T08:57:45;99882.06;;;26.00;27.41
49529;BME280;35423;37.320;-121.762;2023-05-17T09:00:20;99879.71;;;26.16;27.39
49529;BME280;35423;37.320;-121.762;2023-05-17T09:02:57;99877.25;;;26.05;27.50
49529;BME280;35423;37.320;-121.762;2023-05-17T09:05:23;99874.04;;;25.93;27.58
49529;BME280;35423;37.320;-121.762;2023-05-17T09:08:04;99872.61;;;25.82;27.72
49529;BME280;35423;37.320;-121.762;2023-05-17T09:10:38;99870.35;;;25.77;27.76
49529;BME280;35423;37.320;-121.762;2023-05-17T09:13:11;99866.34;;;25.46;27.90
49529;BME280;35423;37.320;-121.762;2023-05-17T09:15:34;99864.60;;;25.60;27.99
49529;BME280;35423;37.320;-121.762;2023-05-17T09:18:02;99858.33;;;25.51;28.05
49529;BME280;35423;37.320;-121.762;2023-05-17T09:20:30;99852.23;;;25.44;28.10
49529;BME280;35423;37.320;-121.762;2023-05-17T09:22:55;99844.39;;;25.32;28.17
49529;BME280;35423;37.320;-121.762;2023-05-17T09:25:23;99839.97;;;25.17;28.30
49529;BME280;35423;37.320;-121.762;2023-05-17T09:27:48;99836.57;;;25.31;28.47
49529;BME280;35423;37.320;-121.762;2023-05-17T09:30:12;99836.17;;;24.90;28.66
49529;BME280;35423;37.320;-121.762;2023-05-17T09:32:43;99834.19;;;24.88;28.78
49529;BME280;35423;37.320;-121.762;2023-05-17T09:35:03;99831.09;;;24.82;28.89
49529;BME280;35423;37.320;-121.762;2023-05-17T09:37:29;99829.44;;;25.07;28.80
49529;BME280;35423;37.320;-121.762;2023-05-17T09:40:00;99825.62;;;25.03;28.78
49529;BME280;35423;37.320;-121.762;2023-05-17T09:42:25;99823.48;;;25.20;28.67
49529;BME280;35423;37.320;-121.762;2023-05-17T09:44:51;99822.62;;;25.16;28.61
49529;BME280;35423;37.320;-121.762;2023-05-17T09:47:25;99821.39;;;25.12;28.58
49529;BME280;35423;37.320;-121.762;2023-05-17T09:49:47;99819.32;;;25.07;28.60
49529;BME280;35423;37.320;-121.762;2023-05-17T09:52:35;99819.74;;;24.81;28.56
49529;BME280;35423;37.320;-121.762;2023-05-17T09:55:01;99820.10;;;24.98;28.56
49529;BME280;35423;37.320;-121.762;2023-05-17T09:57:34;99820.64;;;24.71;28.67
49529;BME280;35423;37.320;-121.762;2023-05-17T10:00:00;99821.16;;;24.89;28.70
49529;BME280;35423;37.320;-121.762;2023-05-17T10:02:32;99822.08;;;24.87;28.76
49529;BME280;35423;37.320;-121.762;2023-05-17T10:04:57;99822.50;;;24.82;28.83
49529;BME280;35423;37.320;-121.762;2023-05-17T10:07:25;99816.96;;;24.59;28.81
49529;BME280;35423;37.320;-121.762;2023-05-17T10:09:49;99813.22;;;24.80;28.89
49529;BME280;35423;37.320;-121.762;2023-05-17T10:12:20;99810.78;;;24.85;28.89
49529;BME280;35423;37.320;-121.762;2023-05-17T10:14:46;99809.17;;;24.70;28.90
49529;BME280;35423;37.320;-121.762;2023-05-17T10:17:12;99809.14;;;25.00;28.99
49529;BME280;35423;37.320;-121.762;2023-05-17T10:19:40;99805.72;;;24.88;28.99
49529;BME280;35423;37.320;-121.762;2023-05-17T10:22:06;99802.48;;;25.17;29.04
49529;BME280;35423;37.320;-121.762;2023-05-17T10:24:34;99801.91;;;25.00;29.08
49529;BME280;35423;37.320;-121.762;2023-05-17T10:27:00;99801.17;;;25.06;29.08
49529;BME280;35423;37.320;-121.762;2023-05-17T10:29:24;99800.07;;;25.30;29.09
49529;BME280;35423;37.320;-121.762;2023-05-17T10:31:55;99799.02;;;25.32;29.11
49529;BME280;35423;37.320;-121.762;2023-05-17T10:34:21;99800.10;;;25.11;29.19
49529;BME280;35423;37.320;-121.762;2023-05-17T10:36:48;99801.65;;;25.35;29.21
49529;BME280;35423;37.320;-121.762;2023-05-17T10:39:12;99802.03;;;25.33;29.31
49529;BME280;35423;37.320;-121.762;2023-05-17T10:41:53;99798.89;;;25.30;29.38
49529;BME280;35423;37.320;-121.762;2023-05-17T10:44:15;99796.81;;;25.06;29.46
49529;BME280;35423;37.320;-121.762;2023-05-17T10:46:50;99797.30;;;25.00;29.49
49529;BME280;35423;37.320;-121.762;2023-05-17T10:49:12;99794.06;;;25.16;29.53
49529;BME280;35423;37.320;-121.762;2023-05-17T10:51:37;99796.00;;;25.10;29.63
49529;BME280;35423;37.320;-121.762;2023-05-17T10:54:10;99802.89;;;24.98;29.74
49529;BME280;35423;37.320;-121.762;2023-05-17T10:56:41;99804.58;;;25.15;29.95
49529;BME280;35423;37.320;-121.762;2023-05-17T10:59:19;99809.30;;;24.82;29.96
49529;BME280;35423;37.320;-121.762;2023-05-17T11:01:53;99808.70;;;25.03;30.06
49529;BME280;35423;37.320;-121.762;2023-05-17T11:04:21;99813.77;;;24.78;30.05
49529;BME280;35423;37.320;-121.762;2023-05-17T11:06:40;99816.25;;;24.68;30.15
49529;BME280;35423;37.320;-121.762;2023-05-17T11:09:14;99817.99;;;24.66;30.14
49529;BME280;35423;37.320;-121.762;2023-05-17T11:14:09;99824.49;;;24.53;30.29
49529;BME280;35423;37.320;-121.762;2023-05-17T11:16:36;99825.92;;;24.38;30.48
49529;BME280;35423;37.320;-121.762;2023-05-17T11:19:06;99831.80;;;24.31;30.63
49529;BME280;35423;37.320;-121.762;2023-05-17T11:21:28;99832.71;;;24.59;30.63
49529;BME280;35423;37.320;-121.762;2023-05-17T11:24:01;99836.52;;;24.33;30.64
49529;BME280;35423;37.320;-121.762;2023-05-17T11:26:34;99840.73;;;24.35;30.66
49529;BME280;35423;37.320;-121.762;2023-05-17T11:29:01;99841.04;;;24.39;30.61
49529;BME280;35423;37.320;-121.762;2023-05-17T11:31:29;99841.87;;;24.59;30.64
49529;BME280;35423;37.320;-121.762;2023-05-17T11:33:45;99846.61;;;24.56;30.72
49529;BME280;35423;37.320;-121.762;2023-05-17T11:36:18;99848.03;;;24.76;30.76
49529;BME280;35423;37.320;-121.762;2023-05-17T11:38:39;99848.83;;;24.67;30.84
49529;BME280;35423;37.320;-121.762;2023-05-17T11:41:16;99842.68;;;23.97;31.19
49529;BME280;35423;37.320;-121.762;2023-05-17T11:43:34;99841.23;;;24.13;31.21
49529;BME280;35423;37.320;-121.762;2023-05-17T11:46:01;99839.12;;;24.13;31.27
49529;BME280;35423;37.320;-121.762;2023-05-17T11:48:28;99838.74;;;24.12;31.32
49529;BME280;35423;37.320;-121.762;2023-05-17T11:50:54;99834.57;;;24.08;31.37
49529;BME280;35423;37.320;-121.762;2023-05-17T11:53:22;99828.77;;;24.26;31.49
49529;BME280;35423;37.320;-121.762;2023-05-17T11:55:48;99829.64;;;24.03;31.42
49529;BME280;35423;37.320;-121.762;2023-05-17T11:58:17;99834.36;;;24.18;31.50
49529;BME280;35423;37.320;-121.762;2023-05-17T12:00:41;99838.23;;;24.11;31.49
49529;BME280;35423;37.320;-121.762;2023-05-17T12:05:35;99838.18;;;24.12;31.54
49529;BME280;35423;37.320;-121.762;2023-05-17T12:08:00;99837.23;;;24.06;31.56
49529;BME280;35423;37.320;-121.762;2023-05-17T12:10:25;99839.45;;;24.00;31.54
49529;BME280;35423;37.320;-121.762;2023-05-17T12:12:51;99842.82;;;23.99;31.51
49529;BME280;35423;37.320;-121.762;2023-05-17T12:15:18;99841.49;;;23.98;31.51
49529;BME280;35423;37.320;-121.762;2023-05-17T12:17:46;99844.14;;;23.99;31.39
49529;BME280;35423;37.320;-121.762;2023-05-17T12:20:18;99841.64;;;23.84;31.57
49529;BME280;35423;37.320;-121.762;2023-05-17T12:22:51;99840.14;;;23.76;31.71
49529;BME280;35423;37.320;-121.762;2023-05-17T12:25:19;99835.64;;;23.27;31.77
49529;BME280;35423;37.320;-121.762;2023-05-17T12:27:47;99830.21;;;23.75;31.86
49529;BME280;35423;37.320;-121.762;2023-05-17T12:30:16;99828.67;;;23.99;31.85
49529;BME280;35423;37.320;-121.762;2023-05-17T12:32:40;99827.98;;;23.97;31.91
49529;BME280;35423;37.320;-121.762;2023-05-17T12:35:08;99827.43;;;23.79;31.85
49529;BME280;35423;37.320;-121.762;2023-05-17T12:37:31;99824.64;;;23.60;31.81
49529;BME280;35423;37.320;-121.762;2023-05-17T12:39:59;99827.12;;;23.82;31.90
49529;BME280;35423;37.320;-121.762;2023-05-17T12:42:22;99826.04;;;23.81;31.80